Accueil
METAR-TAF:

METAR-TAF

Aéroports :

Woensdrecht, Pays-Bas

latitude: 51-27N, longitude: 004-20E, altitude: 20 m

Observation

Le bulletin a été fait il y a 29 minutes, à 06:25 UTC
Vent 4 kt de est/nord-est
Température 14°C
Humidité 77%
Pression 1012 hPa
Visibilité 10 km ou plus
Nuages fragmentés à une hauteur de 17000 ft
Nuages fragmentés à une hauteur de 23000 ft

METAR: EHWO 220625Z AUTO 07004KT 9999 BKN170 BKN230 14/10 Q1012 BLU

Heure: 08:54 (06:54 UTC)


TAF: absent

Observations et prévisions météorologiques de plus de 4000 aéroports (messages METAR et TAF).

Les stations disponibles sont représentées par des disques jaunes et rouges sur la carte.

Passer la souris dessus pour voir le nom de la station.

Cliquer dessus pour voir les observations et prévisions météorologiques.

Pour changer de carte: cliquez sur les boutons verts avec une croix noire pour zoomer, sur le bouton vert avec un tiret pour effectuer un zoom arrière, ou sur les flèches vertes pour les cartes adjacentes.


METAR-TAF: